Iron Queen — MVNW9 — position and weather

sailwx.info

Track history (hours):
 
Tides and Currents Weather Stations Pressure Air Temp Water Temp Dewpoint Dewpoint Depression Visibility Wind Speed Wind Dir Waves Ship Positions

Iron Queen

Last reported at 2014-Oct-24 10:28 UTC. Time now 2014-Oct-24 20:31 UTC.
Position N 22°10' E 114°08'.

Length 280 m; draft 9 m.

Type: Cargo ship. MMSI: 234112000.

Date/timePositionNaut miles runAvg speedWind from/ knotsBaromVisibWave heightAir tempDewpointWater temp
2014-Oct-24 10:28N 22°10' E 114°08'1 0.1
2014-Oct-24 04:04N 22°10' E 114°07'0 0.0
2014-Oct-24 03:28N 22°10' E 114°07'0 0.0
2014-Oct-23 18:28N 22°10' E 114°07'0 0.0
2014-Oct-23 06:16N 22°10' E 114°07'5 0.2
2014-Oct-22 06:33N 22°09' E 114°12'  
2014-Oct-16 14:09N 29°16' E 122°33'1911.6
2014-Oct-16 12:29N 29°35' E 122°32'910.1
2014-Oct-16 11:33N 29°42' E 122°24'1010.1
2014-Oct-16 10:33N 29°48' E 122°15'4 1.0
2014-Oct-16 06:07N 29°52' E 122°13'2 3.7
2014-Oct-16 05:33N 29°51' E 122°11'4 2.6
2014-Oct-16 04:03N 29°49' E 122°07'0 0.0
2014-Oct-16 02:33N 29°49' E 122°07'0 0.0
2014-Oct-16 01:33N 29°49' E 122°07'0 0.1
2014-Oct-15 21:03N 29°49' E 122°07'0 0.0
2014-Oct-15 19:27N 29°49' E 122°07'0 0.1
2014-Oct-15 17:03N 29°49' E 122°07'0 0.1
2014-Oct-15 16:21N 29°49' E 122°07'0 0.1
2014-Oct-15 15:33N 29°49' E 122°07'0 0.1
2014-Oct-15 14:27N 29°49' E 122°07'0 0.0
2014-Oct-15 12:09N 29°49' E 122°07'0 0.1
2014-Oct-15 09:13N 29°49' E 122°07'1 1.4
2014-Oct-15 08:34N 29°48' E 122°07'1 0.3
2014-Oct-15 06:05N 29°48' E 122°07'0 0.0
2014-Oct-15 04:29N 29°48' E 122°07'0 0.0
2014-Oct-15 03:29N 29°48' E 122°07'0 0.0
2014-Oct-15 02:29N 29°48' E 122°07'0 0.0
2014-Oct-15 01:17N 29°48' E 122°07'0 0.0
2014-Oct-14 18:11N 29°48' E 122°07'0 0.0
2014-Oct-14 14:29N 29°48' E 122°07'0 0.0
2014-Oct-14 12:05N 29°48' E 122°07'  
Track history (hours):
 
Tides and Currents Weather Stations Pressure Air Temp Water Temp Dewpoint Dewpoint Depression Visibility Wind Speed Wind Dir Waves Ship Positions

Iron Queen

Last reported at 2014-Oct-24 10:28 UTC. Time now 2014-Oct-24 20:31 UTC.
Position N 22°10' E 114°08'.

Length 280 m; draft 9 m.

Type: Cargo ship. MMSI: 234112000.

Date/timePositionNaut miles runAvg speedWind from/ knotsBaromVisibWave heightAir tempDewpointWater temp
2014-Oct-24 10:28N 22°10' E 114°08'1 0.1
2014-Oct-24 04:04N 22°10' E 114°07'0 0.0
2014-Oct-24 03:28N 22°10' E 114°07'0 0.0
2014-Oct-23 18:28N 22°10' E 114°07'0 0.0
2014-Oct-23 06:16N 22°10' E 114°07'5 0.2
2014-Oct-22 06:33N 22°09' E 114°12'  
2014-Oct-16 14:09N 29°16' E 122°33'1911.6
2014-Oct-16 12:29N 29°35' E 122°32'910.1
2014-Oct-16 11:33N 29°42' E 122°24'1010.1
2014-Oct-16 10:33N 29°48' E 122°15'4 1.0
2014-Oct-16 06:07N 29°52' E 122°13'2 3.7
2014-Oct-16 05:33N 29°51' E 122°11'4 2.6
2014-Oct-16 04:03N 29°49' E 122°07'0 0.0
2014-Oct-16 02:33N 29°49' E 122°07'0 0.0
2014-Oct-16 01:33N 29°49' E 122°07'0 0.1
2014-Oct-15 21:03N 29°49' E 122°07'0 0.0
2014-Oct-15 19:27N 29°49' E 122°07'0 0.1
2014-Oct-15 17:03N 29°49' E 122°07'0 0.1
2014-Oct-15 16:21N 29°49' E 122°07'0 0.1
2014-Oct-15 15:33N 29°49' E 122°07'0 0.1
2014-Oct-15 14:27N 29°49' E 122°07'0 0.0
2014-Oct-15 12:09N 29°49' E 122°07'0 0.1
2014-Oct-15 09:13N 29°49' E 122°07'1 1.4
2014-Oct-15 08:34N 29°48' E 122°07'1 0.3
2014-Oct-15 06:05N 29°48' E 122°07'0 0.0
2014-Oct-15 04:29N 29°48' E 122°07'0 0.0
2014-Oct-15 03:29N 29°48' E 122°07'0 0.0
2014-Oct-15 02:29N 29°48' E 122°07'0 0.0
2014-Oct-15 01:17N 29°48' E 122°07'0 0.0
2014-Oct-14 18:11N 29°48' E 122°07'0 0.0
2014-Oct-14 14:29N 29°48' E 122°07'0 0.0
2014-Oct-14 12:05N 29°48' E 122°07'  

Dump ship's entire track history